sensor_id;sensor_type;location;lat;lon;timestamp;P1;durP1;ratioP1;P2;durP2;ratioP2
2053;SDS011;1032;52.542;13.440;2023-01-28T00:00:30;8.07;;;4.78;;
2053;SDS011;1032;52.542;13.440;2023-01-28T00:02:56;11.82;;;4.55;;
2053;SDS011;1032;52.542;13.440;2023-01-28T00:05:23;8.23;;;4.70;;
2053;SDS011;1032;52.542;13.440;2023-01-28T00:07:50;8.50;;;4.70;;
2053;SDS011;1032;52.542;13.440;2023-01-28T00:10:17;10.50;;;5.65;;
2053;SDS011;1032;52.542;13.440;2023-01-28T00:12:45;9.77;;;5.28;;
2053;SDS011;1032;52.542;13.440;2023-01-28T00:15:12;11.48;;;4.97;;
2053;SDS011;1032;52.542;13.440;2023-01-28T00:17:39;6.70;;;4.78;;
2053;SDS011;1032;52.542;13.440;2023-01-28T00:20:06;8.68;;;4.70;;
2053;SDS011;1032;52.542;13.440;2023-01-28T00:22:33;8.55;;;4.40;;
2053;SDS011;1032;52.542;13.440;2023-01-28T00:25:00;7.25;;;5.10;;
2053;SDS011;1032;52.542;13.440;2023-01-28T00:27:27;7.60;;;4.70;;
2053;SDS011;1032;52.542;13.440;2023-01-28T00:29:57;9.43;;;4.38;;
2053;SDS011;1032;52.542;13.440;2023-01-28T00:32:24;7.10;;;3.60;;
2053;SDS011;1032;52.542;13.440;2023-01-28T00:34:51;11.50;;;4.35;;
2053;SDS011;1032;52.542;13.440;2023-01-28T00:37:18;7.18;;;4.03;;
2053;SDS011;1032;52.542;13.440;2023-01-28T00:39:44;8.68;;;4.38;;
2053;SDS011;1032;52.542;13.440;2023-01-28T00:42:11;8.18;;;4.50;;
2053;SDS011;1032;52.542;13.440;2023-01-28T00:44:38;7.28;;;4.60;;
2053;SDS011;1032;52.542;13.440;2023-01-28T00:47:06;7.40;;;4.40;;
2053;SDS011;1032;52.542;13.440;2023-01-28T00:49:32;7.53;;;4.63;;
2053;SDS011;1032;52.542;13.440;2023-01-28T00:52:00;8.07;;;4.40;;
2053;SDS011;1032;52.542;13.440;2023-01-28T00:54:27;7.63;;;4.25;;
2053;SDS011;1032;52.542;13.440;2023-01-28T00:56:54;7.30;;;3.95;;
2053;SDS011;1032;52.542;13.440;2023-01-28T00:59:20;5.93;;;3.20;;
2053;SDS011;1032;52.542;13.440;2023-01-28T01:01:47;8.35;;;4.82;;
2053;SDS011;1032;52.542;13.440;2023-01-28T01:04:15;8.02;;;3.92;;
2053;SDS011;1032;52.542;13.440;2023-01-28T01:06:51;7.85;;;3.97;;
2053;SDS011;1032;52.542;13.440;2023-01-28T01:09:18;9.55;;;3.70;;
2053;SDS011;1032;52.542;13.440;2023-01-28T01:11:46;7.10;;;4.45;;
2053;SDS011;1032;52.542;13.440;2023-01-28T01:14:13;7.55;;;4.22;;
2053;SDS011;1032;52.542;13.440;2023-01-28T01:16:39;9.30;;;4.50;;
2053;SDS011;1032;52.542;13.440;2023-01-28T01:19:06;9.38;;;4.78;;
2053;SDS011;1032;52.542;13.440;2023-01-28T01:21:35;5.50;;;3.40;;
2053;SDS011;1032;52.542;13.440;2023-01-28T01:24:02;8.25;;;4.85;;
2053;SDS011;1032;52.542;13.440;2023-01-28T01:26:29;4.95;;;3.50;;
2053;SDS011;1032;52.542;13.440;2023-01-28T01:28:56;8.00;;;4.38;;
2053;SDS011;1032;52.542;13.440;2023-01-28T01:31:22;6.70;;;3.80;;
2053;SDS011;1032;52.542;13.440;2023-01-28T01:33:49;7.80;;;3.47;;
2053;SDS011;1032;52.542;13.440;2023-01-28T01:36:17;8.82;;;4.75;;
2053;SDS011;1032;52.542;13.440;2023-01-28T01:38:47;9.07;;;4.18;;
2053;SDS011;1032;52.542;13.440;2023-01-28T01:41:21;7.93;;;3.92;;
2053;SDS011;1032;52.542;13.440;2023-01-28T01:43:51;7.63;;;3.78;;
2053;SDS011;1032;52.542;13.440;2023-01-28T01:46:21;4.80;;;3.65;;
2053;SDS011;1032;52.542;13.440;2023-01-28T01:48:53;8.80;;;4.40;;
2053;SDS011;1032;52.542;13.440;2023-01-28T01:51:23;5.63;;;4.15;;
2053;SDS011;1032;52.542;13.440;2023-01-28T01:53:56;4.78;;;3.13;;
2053;SDS011;1032;52.542;13.440;2023-01-28T01:56:25;9.52;;;3.85;;
2053;SDS011;1032;52.542;13.440;2023-01-28T01:58:55;5.25;;;2.97;;
2053;SDS011;1032;52.542;13.440;2023-01-28T02:01:23;4.72;;;3.70;;
2053;SDS011;1032;52.542;13.440;2023-01-28T02:03:54;7.05;;;3.40;;
2053;SDS011;1032;52.542;13.440;2023-01-28T02:06:27;5.05;;;3.60;;
2053;SDS011;1032;52.542;13.440;2023-01-28T02:08:57;6.43;;;4.07;;
2053;SDS011;1032;52.542;13.440;2023-01-28T02:11:24;5.85;;;3.67;;
2053;SDS011;1032;52.542;13.440;2023-01-28T02:13:56;6.68;;;3.58;;
2053;SDS011;1032;52.542;13.440;2023-01-28T02:16:26;6.10;;;3.25;;
2053;SDS011;1032;52.542;13.440;2023-01-28T02:18:53;8.15;;;3.85;;
2053;SDS011;1032;52.542;13.440;2023-01-28T02:24:31;5.93;;;4.20;;
2053;SDS011;1032;52.542;13.440;2023-01-28T02:27:18;6.95;;;3.80;;
2053;SDS011;1032;52.542;13.440;2023-01-28T02:29:55;5.25;;;3.45;;
2053;SDS011;1032;52.542;13.440;2023-01-28T02:32:29;6.93;;;3.78;;
2053;SDS011;1032;52.542;13.440;2023-01-28T02:35:03;4.82;;;3.67;;
2053;SDS011;1032;52.542;13.440;2023-01-28T02:37:36;7.07;;;3.45;;
2053;SDS011;1032;52.542;13.440;2023-01-28T02:40:07;7.05;;;4.25;;
2053;SDS011;1032;52.542;13.440;2023-01-28T02:42:37;8.10;;;4.22;;
2053;SDS011;1032;52.542;13.440;2023-01-28T02:45:11;6.07;;;3.83;;
2053;SDS011;1032;52.542;13.440;2023-01-28T02:47:45;7.70;;;3.40;;
2053;SDS011;1032;52.542;13.440;2023-01-28T02:50:25;7.13;;;3.47;;
2053;SDS011;1032;52.542;13.440;2023-01-28T02:53:06;5.55;;;3.45;;
2053;SDS011;1032;52.542;13.440;2023-01-28T02:56:01;4.97;;;3.28;;
2053;SDS011;1032;52.542;13.440;2023-01-28T02:58:38;6.97;;;2.97;;
2053;SDS011;1032;52.542;13.440;2023-01-28T03:01:12;7.43;;;3.72;;
2053;SDS011;1032;52.542;13.440;2023-01-28T03:03:47;4.32;;;3.28;;
2053;SDS011;1032;52.542;13.440;2023-01-28T03:06:22;4.57;;;2.85;;
2053;SDS011;1032;52.542;13.440;2023-01-28T03:08:54;5.88;;;3.05;;
2053;SDS011;1032;52.542;13.440;2023-01-28T03:11:42;5.88;;;2.90;;
2053;SDS011;1032;52.542;13.440;2023-01-28T03:14:30;6.30;;;3.13;;
2053;SDS011;1032;52.542;13.440;2023-01-28T03:17:19;5.57;;;3.60;;
2053;SDS011;1032;52.542;13.440;2023-01-28T03:20:08;6.68;;;3.17;;
2053;SDS011;1032;52.542;13.440;2023-01-28T03:22:55;3.90;;;3.20;;
2053;SDS011;1032;52.542;13.440;2023-01-28T03:25:44;5.50;;;3.30;;
2053;SDS011;1032;52.542;13.440;2023-01-28T03:28:31;5.35;;;3.00;;
2053;SDS011;1032;52.542;13.440;2023-01-28T03:31:19;5.50;;;3.17;;
2053;SDS011;1032;52.542;13.440;2023-01-28T03:34:06;8.27;;;3.60;;
2053;SDS011;1032;52.542;13.440;2023-01-28T03:36:53;4.40;;;3.42;;
2053;SDS011;1032;52.542;13.440;2023-01-28T03:39:40;6.10;;;3.70;;
2053;SDS011;1032;52.542;13.440;2023-01-28T03:42:09;5.07;;;3.35;;
2053;SDS011;1032;52.542;13.440;2023-01-28T03:44:48;6.95;;;3.25;;
2053;SDS011;1032;52.542;13.440;2023-01-28T03:47:17;5.18;;;3.17;;
2053;SDS011;1032;52.542;13.440;2023-01-28T03:49:47;4.65;;;2.83;;
2053;SDS011;1032;52.542;13.440;2023-01-28T03:52:18;5.97;;;3.15;;
2053;SDS011;1032;52.542;13.440;2023-01-28T03:54:46;6.53;;;3.05;;
2053;SDS011;1032;52.542;13.440;2023-01-28T03:57:14;7.38;;;3.97;;
2053;SDS011;1032;52.542;13.440;2023-01-28T03:59:41;5.72;;;3.50;;
2053;SDS011;1032;52.542;13.440;2023-01-28T04:02:08;5.00;;;3.42;;
2053;SDS011;1032;52.542;13.440;2023-01-28T04:04:36;6.43;;;3.50;;
2053;SDS011;1032;52.542;13.440;2023-01-28T04:07:06;4.28;;;2.80;;
2053;SDS011;1032;52.542;13.440;2023-01-28T04:09:57;3.10;;;2.50;;
2053;SDS011;1032;52.542;13.440;2023-01-28T04:12:44;6.90;;;3.40;;
2053;SDS011;1032;52.542;13.440;2023-01-28T04:15:13;3.45;;;2.83;;
2053;SDS011;1032;52.542;13.440;2023-01-28T04:17:45;5.65;;;3.40;;
2053;SDS011;1032;52.542;13.440;2023-01-28T04:20:19;4.30;;;3.08;;
2053;SDS011;1032;52.542;13.440;2023-01-28T04:22:47;2.90;;;2.60;;
2053;SDS011;1032;52.542;13.440;2023-01-28T04:25:14;5.82;;;2.90;;
2053;SDS011;1032;52.542;13.440;2023-01-28T04:27:42;5.82;;;3.17;;
2053;SDS011;1032;52.542;13.440;2023-01-28T04:30:20;5.30;;;2.95;;
2053;SDS011;1032;52.542;13.440;2023-01-28T04:33:01;2.95;;;2.55;;
2053;SDS011;1032;52.542;13.440;2023-01-28T04:35:38;4.35;;;3.30;;
2053;SDS011;1032;52.542;13.440;2023-01-28T04:38:13;3.72;;;2.58;;
2053;SDS011;1032;52.542;13.440;2023-01-28T04:40:59;4.70;;;3.20;;
2053;SDS011;1032;52.542;13.440;2023-01-28T04:43:29;4.97;;;3.00;;
2053;SDS011;1032;52.542;13.440;2023-01-28T04:46:15;8.00;;;3.63;;
2053;SDS011;1032;52.542;13.440;2023-01-28T04:49:02;8.68;;;3.47;;
2053;SDS011;1032;52.542;13.440;2023-01-28T04:51:49;4.97;;;3.33;;
2053;SDS011;1032;52.542;13.440;2023-01-28T04:54:32;5.72;;;3.20;;
2053;SDS011;1032;52.542;13.440;2023-01-28T04:57:01;6.15;;;2.60;;
2053;SDS011;1032;52.542;13.440;2023-01-28T04:59:28;7.53;;;3.08;;
2053;SDS011;1032;52.542;13.440;2023-01-28T05:01:55;3.35;;;2.58;;
2053;SDS011;1032;52.542;13.440;2023-01-28T05:04:21;5.25;;;2.83;;
2053;SDS011;1032;52.542;13.440;2023-01-28T05:06:48;4.97;;;2.90;;
2053;SDS011;1032;52.542;13.440;2023-01-28T05:09:20;4.80;;;3.10;;
2053;SDS011;1032;52.542;13.440;2023-01-28T05:11:50;6.07;;;2.90;;
2053;SDS011;1032;52.542;13.440;2023-01-28T05:14:17;5.05;;;2.50;;
2053;SDS011;1032;52.542;13.440;2023-01-28T05:16:54;6.03;;;2.78;;
2053;SDS011;1032;52.542;13.440;2023-01-28T05:19:20;10.43;;;3.53;;
2053;SDS011;1032;52.542;13.440;2023-01-28T05:21:47;7.60;;;3.10;;
2053;SDS011;1032;52.542;13.440;2023-01-28T05:24:37;7.32;;;3.75;;
2053;SDS011;1032;52.542;13.440;2023-01-28T05:27:05;11.63;;;3.10;;
2053;SDS011;1032;52.542;13.440;2023-01-28T05:29:32;3.35;;;2.60;;
2053;SDS011;1032;52.542;13.440;2023-01-28T05:31:59;3.45;;;2.65;;
2053;SDS011;1032;52.542;13.440;2023-01-28T05:34:25;14.55;;;4.15;;
2053;SDS011;1032;52.542;13.440;2023-01-28T05:36:54;10.02;;;4.03;;
2053;SDS011;1032;52.542;13.440;2023-01-28T05:39:27;7.47;;;4.72;;
2053;SDS011;1032;52.542;13.440;2023-01-28T05:41:55;8.18;;;6.20;;
2053;SDS011;1032;52.542;13.440;2023-01-28T05:44:23;9.05;;;4.65;;
2053;SDS011;1032;52.542;13.440;2023-01-28T05:47:04;10.38;;;4.90;;
2053;SDS011;1032;52.542;13.440;2023-01-28T05:49:44;5.70;;;3.83;;
2053;SDS011;1032;52.542;13.440;2023-01-28T05:52:31;6.80;;;5.18;;
2053;SDS011;1032;52.542;13.440;2023-01-28T05:54:58;9.07;;;5.50;;
2053;SDS011;1032;52.542;13.440;2023-01-28T05:57:25;9.65;;;5.63;;
2053;SDS011;1032;52.542;13.440;2023-01-28T05:59:53;10.20;;;5.95;;
2053;SDS011;1032;52.542;13.440;2023-01-28T06:02:20;12.05;;;6.40;;
2053;SDS011;1032;52.542;13.440;2023-01-28T06:04:49;10.00;;;6.07;;
2053;SDS011;1032;52.542;13.440;2023-01-28T06:07:16;7.00;;;5.00;;
2053;SDS011;1032;52.542;13.440;2023-01-28T06:09:45;9.43;;;5.93;;
2053;SDS011;1032;52.542;13.440;2023-01-28T06:12:14;9.57;;;5.47;;
2053;SDS011;1032;52.542;13.440;2023-01-28T06:14:54;11.00;;;6.70;;
2053;SDS011;1032;52.542;13.440;2023-01-28T06:17:44;9.00;;;6.88;;
2053;SDS011;1032;52.542;13.440;2023-01-28T06:20:24;9.85;;;6.78;;
2053;SDS011;1032;52.542;13.440;2023-01-28T06:22:52;8.88;;;6.20;;
2053;SDS011;1032;52.542;13.440;2023-01-28T06:25:19;12.55;;;7.25;;
2053;SDS011;1032;52.542;13.440;2023-01-28T06:27:46;10.50;;;6.32;;
2053;SDS011;1032;52.542;13.440;2023-01-28T06:30:14;9.60;;;6.45;;
2053;SDS011;1032;52.542;13.440;2023-01-28T06:32:41;10.25;;;6.70;;
2053;SDS011;1032;52.542;13.440;2023-01-28T06:35:08;10.93;;;7.32;;
2053;SDS011;1032;52.542;13.440;2023-01-28T06:37:36;10.43;;;6.45;;
2053;SDS011;1032;52.542;13.440;2023-01-28T06:40:03;11.43;;;7.38;;
2053;SDS011;1032;52.542;13.440;2023-01-28T06:42:31;8.98;;;5.68;;
2053;SDS011;1032;52.542;13.440;2023-01-28T06:44:57;9.27;;;6.40;;
2053;SDS011;1032;52.542;13.440;2023-01-28T06:47:25;8.10;;;5.97;;
2053;SDS011;1032;52.542;13.440;2023-01-28T06:49:52;9.32;;;6.47;;
2053;SDS011;1032;52.542;13.440;2023-01-28T06:52:18;10.15;;;6.57;;
2053;SDS011;1032;52.542;13.440;2023-01-28T06:54:45;12.38;;;6.32;;
2053;SDS011;1032;52.542;13.440;2023-01-28T06:57:12;13.20;;;7.05;;
2053;SDS011;1032;52.542;13.440;2023-01-28T06:59:38;10.95;;;7.05;;
2053;SDS011;1032;52.542;13.440;2023-01-28T07:02:05;11.73;;;7.75;;
2053;SDS011;1032;52.542;13.440;2023-01-28T07:04:33;10.88;;;7.55;;
2053;SDS011;1032;52.542;13.440;2023-01-28T07:07:00;8.52;;;5.97;;
2053;SDS011;1032;52.542;13.440;2023-01-28T07:09:26;10.45;;;6.90;;
2053;SDS011;1032;52.542;13.440;2023-01-28T07:11:53;9.07;;;5.25;;
2053;SDS011;1032;52.542;13.440;2023-01-28T07:14:19;15.70;;;7.28;;
2053;SDS011;1032;52.542;13.440;2023-01-28T07:16:46;10.55;;;6.88;;
2053;SDS011;1032;52.542;13.440;2023-01-28T07:19:13;11.80;;;6.90;;
2053;SDS011;1032;52.542;13.440;2023-01-28T07:21:41;10.35;;;7.15;;
2053;SDS011;1032;52.542;13.440;2023-01-28T07:24:07;8.70;;;5.43;;
2053;SDS011;1032;52.542;13.440;2023-01-28T07:26:34;7.05;;;4.70;;
2053;SDS011;1032;52.542;13.440;2023-01-28T07:29:01;7.80;;;5.78;;
2053;SDS011;1032;52.542;13.440;2023-01-28T07:31:27;13.25;;;5.32;;
2053;SDS011;1032;52.542;13.440;2023-01-28T07:33:54;8.02;;;5.47;;
2053;SDS011;1032;52.542;13.440;2023-01-28T07:36:21;6.90;;;5.35;;
2053;SDS011;1032;52.542;13.440;2023-01-28T07:38:48;7.82;;;5.70;;
2053;SDS011;1032;52.542;13.440;2023-01-28T07:41:15;9.77;;;5.80;;
2053;SDS011;1032;52.542;13.440;2023-01-28T07:43:42;13.00;;;5.85;;
2053;SDS011;1032;52.542;13.440;2023-01-28T07:46:10;7.55;;;4.38;;
2053;SDS011;1032;52.542;13.440;2023-01-28T07:48:37;6.85;;;4.40;;
2053;SDS011;1032;52.542;13.440;2023-01-28T07:51:04;7.90;;;4.68;;
2053;SDS011;1032;52.542;13.440;2023-01-28T07:53:31;6.75;;;4.30;;
2053;SDS011;1032;52.542;13.440;2023-01-28T07:55:59;6.07;;;4.00;;
2053;SDS011;1032;52.542;13.440;2023-01-28T07:58:26;6.85;;;4.15;;
2053;SDS011;1032;52.542;13.440;2023-01-28T08:00:55;13.18;;;4.80;;
2053;SDS011;1032;52.542;13.440;2023-01-28T08:03:22;4.75;;;3.38;;
2053;SDS011;1032;52.542;13.440;2023-01-28T08:05:49;6.65;;;4.47;;
2053;SDS011;1032;52.542;13.440;2023-01-28T08:08:17;8.90;;;4.68;;
2053;SDS011;1032;52.542;13.440;2023-01-28T08:10:44;5.68;;;4.50;;
2053;SDS011;1032;52.542;13.440;2023-01-28T08:13:12;5.57;;;4.45;;
2053;SDS011;1032;52.542;13.440;2023-01-28T08:15:40;5.22;;;4.40;;
2053;SDS011;1032;52.542;13.440;2023-01-28T08:18:08;10.93;;;4.28;;
2053;SDS011;1032;52.542;13.440;2023-01-28T08:20:37;6.25;;;4.88;;
2053;SDS011;1032;52.542;13.440;2023-01-28T08:23:05;9.98;;;4.18;;
2053;SDS011;1032;52.542;13.440;2023-01-28T08:25:32;6.35;;;4.43;;
2053;SDS011;1032;52.542;13.440;2023-01-28T08:27:59;6.65;;;4.30;;
2053;SDS011;1032;52.542;13.440;2023-01-28T08:30:27;8.60;;;5.07;;
2053;SDS011;1032;52.542;13.440;2023-01-28T08:32:54;7.72;;;4.50;;
2053;SDS011;1032;52.542;13.440;2023-01-28T08:35:21;5.70;;;4.10;;
2053;SDS011;1032;52.542;13.440;2023-01-28T08:37:48;12.75;;;5.05;;
2053;SDS011;1032;52.542;13.440;2023-01-28T08:40:15;6.68;;;3.80;;
2053;SDS011;1032;52.542;13.440;2023-01-28T08:42:45;6.03;;;4.00;;
2053;SDS011;1032;52.542;13.440;2023-01-28T08:45:12;4.55;;;3.33;;
2053;SDS011;1032;52.542;13.440;2023-01-28T08:47:47;4.15;;;3.03;;
2053;SDS011;1032;52.542;13.440;2023-01-28T08:50:14;3.20;;;2.78;;
2053;SDS011;1032;52.542;13.440;2023-01-28T08:52:41;4.70;;;3.33;;
2053;SDS011;1032;52.542;13.440;2023-01-28T08:55:08;3.83;;;3.20;;
2053;SDS011;1032;52.542;13.440;2023-01-28T08:57:35;4.70;;;2.72;;
2053;SDS011;1032;52.542;13.440;2023-01-28T09:00:02;6.82;;;2.53;;
2053;SDS011;1032;52.542;13.440;2023-01-28T09:02:29;4.05;;;2.20;;
2053;SDS011;1032;52.542;13.440;2023-01-28T09:04:57;4.18;;;2.25;;
2053;SDS011;1032;52.542;13.440;2023-01-28T09:07:24;3.97;;;2.05;;
2053;SDS011;1032;52.542;13.440;2023-01-28T09:09:51;9.55;;;4.25;;
2053;SDS011;1032;52.542;13.440;2023-01-28T09:12:18;2.10;;;1.40;;
2053;SDS011;1032;52.542;13.440;2023-01-28T09:14:44;3.92;;;1.95;;
2053;SDS011;1032;52.542;13.440;2023-01-28T09:17:11;4.07;;;1.65;;
2053;SDS011;1032;52.542;13.440;2023-01-28T09:19:37;2.70;;;1.70;;
2053;SDS011;1032;52.542;13.440;2023-01-28T09:22:05;3.33;;;1.73;;
2053;SDS011;1032;52.542;13.440;2023-01-28T09:24:32;4.28;;;1.75;;
2053;SDS011;1032;52.542;13.440;2023-01-28T09:26:58;5.50;;;2.10;;
2053;SDS011;1032;52.542;13.440;2023-01-28T09:29:25;2.17;;;1.52;;
2053;SDS011;1032;52.542;13.440;2023-01-28T09:31:52;6.65;;;2.75;;
2053;SDS011;1032;52.542;13.440;2023-01-28T09:34:20;3.90;;;2.28;;
2053;SDS011;1032;52.542;13.440;2023-01-28T09:36:46;4.80;;;1.95;;
2053;SDS011;1032;52.542;13.440;2023-01-28T09:39:14;3.25;;;2.20;;
2053;SDS011;1032;52.542;13.440;2023-01-28T09:41:43;4.35;;;2.38;;
2053;SDS011;1032;52.542;13.440;2023-01-28T09:44:23;3.97;;;2.35;;
2053;SDS011;1032;52.542;13.440;2023-01-28T09:47:01;3.20;;;2.17;;
2053;SDS011;1032;52.542;13.440;2023-01-28T09:49:31;3.08;;;2.10;;
2053;SDS011;1032;52.542;13.440;2023-01-28T09:52:00;6.90;;;2.85;;
2053;SDS011;1032;52.542;13.440;2023-01-28T09:54:32;13.90;;;5.13;;
2053;SDS011;1032;52.542;13.440;2023-01-28T09:57:09;4.22;;;1.60;;
2053;SDS011;1032;52.542;13.440;2023-01-28T09:59:39;2.55;;;1.45;;
2053;SDS011;1032;52.542;13.440;2023-01-28T10:02:14;8.23;;;2.78;;
2053;SDS011;1032;52.542;13.440;2023-01-28T10:05:02;4.20;;;1.77;;
2053;SDS011;1032;52.542;13.440;2023-01-28T10:07:38;6.18;;;2.33;;
2053;SDS011;1032;52.542;13.440;2023-01-28T10:10:13;3.88;;;1.48;;
2053;SDS011;1032;52.542;13.440;2023-01-28T10:12:46;2.85;;;1.52;;
2053;SDS011;1032;52.542;13.440;2023-01-28T10:15:39;6.13;;;2.22;;
2053;SDS011;1032;52.542;13.440;2023-01-28T10:18:14;2.72;;;1.83;;
2053;SDS011;1032;52.542;13.440;2023-01-28T10:20:41;4.05;;;1.90;;
2053;SDS011;1032;52.542;13.440;2023-01-28T10:23:13;4.13;;;1.75;;
2053;SDS011;1032;52.542;13.440;2023-01-28T10:25:46;3.40;;;2.00;;
2053;SDS011;1032;52.542;13.440;2023-01-28T10:28:17;3.40;;;1.83;;
2053;SDS011;1032;52.542;13.440;2023-01-28T10:30:46;2.53;;;1.77;;
2053;SDS011;1032;52.542;13.440;2023-01-28T10:33:15;9.40;;;2.28;;
2053;SDS011;1032;52.542;13.440;2023-01-28T10:35:45;2.60;;;1.70;;
2053;SDS011;1032;52.542;13.440;2023-01-28T10:38:13;5.53;;;1.58;;
2053;SDS011;1032;52.542;13.440;2023-01-28T10:40:41;2.30;;;1.10;;
2053;SDS011;1032;52.542;13.440;2023-01-28T10:43:13;1.63;;;1.23;;
2053;SDS011;1032;52.542;13.440;2023-01-28T10:45:42;1.85;;;1.30;;
2053;SDS011;1032;52.542;13.440;2023-01-28T10:48:19;3.97;;;1.75;;
2053;SDS011;1032;52.542;13.440;2023-01-28T10:50:49;2.30;;;1.45;;
2053;SDS011;1032;52.542;13.440;2023-01-28T10:53:16;5.15;;;1.70;;
2053;SDS011;1032;52.542;13.440;2023-01-28T10:55:45;2.05;;;1.30;;
2053;SDS011;1032;52.542;13.440;2023-01-28T10:58:17;3.30;;;2.05;;
2053;SDS011;1032;52.542;13.440;2023-01-28T11:00:51;4.18;;;1.50;;
2053;SDS011;1032;52.542;13.440;2023-01-28T11:03:19;3.80;;;1.40;;
2053;SDS011;1032;52.542;13.440;2023-01-28T11:05:49;4.22;;;2.42;;
2053;SDS011;1032;52.542;13.440;2023-01-28T11:08:17;3.28;;;1.65;;
2053;SDS011;1032;52.542;13.440;2023-01-28T11:10:45;4.80;;;1.67;;
2053;SDS011;1032;52.542;13.440;2023-01-28T11:13:14;2.33;;;1.20;;
2053;SDS011;1032;52.542;13.440;2023-01-28T11:15:46;2.42;;;1.35;;
2053;SDS011;1032;52.542;13.440;2023-01-28T11:18:16;5.20;;;1.63;;
2053;SDS011;1032;52.542;13.440;2023-01-28T11:20:48;29.23;;;3.30;;
2053;SDS011;1032;52.542;13.440;2023-01-28T11:23:17;8.07;;;1.90;;
2053;SDS011;1032;52.542;13.440;2023-01-28T11:25:46;3.10;;;1.35;;
2053;SDS011;1032;52.542;13.440;2023-01-28T11:28:15;2.53;;;1.02;;
2053;SDS011;1032;52.542;13.440;2023-01-28T11:30:48;3.28;;;1.30;;
2053;SDS011;1032;52.542;13.440;2023-01-28T11:33:17;9.75;;;2.50;;
2053;SDS011;1032;52.542;13.440;2023-01-28T11:35:52;4.13;;;2.25;;
2053;SDS011;1032;52.542;13.440;2023-01-28T11:38:21;7.13;;;2.10;;
2053;SDS011;1032;52.542;13.440;2023-01-28T11:40:49;3.55;;;1.90;;
2053;SDS011;1032;52.542;13.440;2023-01-28T11:43:18;4.60;;;2.50;;
2053;SDS011;1032;52.542;13.440;2023-01-28T11:45:48;4.80;;;1.90;;
2053;SDS011;1032;52.542;13.440;2023-01-28T11:48:26;5.72;;;1.63;;
2053;SDS011;1032;52.542;13.440;2023-01-28T11:50:59;7.28;;;2.28;;
2053;SDS011;1032;52.542;13.440;2023-01-28T11:53:34;7.18;;;2.10;;
2053;SDS011;1032;52.542;13.440;2023-01-28T11:56:25;5.72;;;1.95;;
2053;SDS011;1032;52.542;13.440;2023-01-28T11:59:09;5.18;;;2.30;;
2053;SDS011;1032;52.542;13.440;2023-01-28T12:01:51;4.60;;;2.95;;
2053;SDS011;1032;52.542;13.440;2023-01-28T12:04:31;3.17;;;1.70;;
2053;SDS011;1032;52.542;13.440;2023-01-28T12:07:10;2.53;;;1.63;;
2053;SDS011;1032;52.542;13.440;2023-01-28T12:09:49;7.20;;;2.25;;
2053;SDS011;1032;52.542;13.440;2023-01-28T12:12:33;12.10;;;2.40;;
2053;SDS011;1032;52.542;13.440;2023-01-28T12:15:22;4.65;;;2.30;;
2053;SDS011;1032;52.542;13.440;2023-01-28T12:18:19;7.20;;;2.75;;
2053;SDS011;1032;52.542;13.440;2023-01-28T12:20:57;9.70;;;3.67;;
2053;SDS011;1032;52.542;13.440;2023-01-28T12:23:46;4.85;;;2.45;;
2053;SDS011;1032;52.542;13.440;2023-01-28T12:26:22;7.30;;;2.55;;
2053;SDS011;1032;52.542;13.440;2023-01-28T12:29:01;9.05;;;3.00;;
2053;SDS011;1032;52.542;13.440;2023-01-28T12:31:50;14.75;;;2.70;;
2053;SDS011;1032;52.542;13.440;2023-01-28T12:34:31;5.70;;;3.00;;
2053;SDS011;1032;52.542;13.440;2023-01-28T12:37:13;8.73;;;3.25;;
2053;SDS011;1032;52.542;13.440;2023-01-28T12:39:50;6.88;;;2.55;;
2053;SDS011;1032;52.542;13.440;2023-01-28T12:42:26;5.95;;;2.80;;
2053;SDS011;1032;52.542;13.440;2023-01-28T12:45:01;7.93;;;3.40;;
2053;SDS011;1032;52.542;13.440;2023-01-28T12:47:38;6.38;;;4.20;;
2053;SDS011;1032;52.542;13.440;2023-01-28T12:50:10;7.32;;;3.75;;
2053;SDS011;1032;52.542;13.440;2023-01-28T12:52:41;5.88;;;2.70;;
2053;SDS011;1032;52.542;13.440;2023-01-28T12:55:12;8.93;;;3.17;;
2053;SDS011;1032;52.542;13.440;2023-01-28T12:57:43;6.85;;;2.60;;
2053;SDS011;1032;52.542;13.440;2023-01-28T13:00:14;6.28;;;2.17;;
2053;SDS011;1032;52.542;13.440;2023-01-28T13:02:51;6.85;;;3.20;;
2053;SDS011;1032;52.542;13.440;2023-01-28T13:05:27;9.07;;;2.63;;
2053;SDS011;1032;52.542;13.440;2023-01-28T13:08:00;6.30;;;3.40;;
2053;SDS011;1032;52.542;13.440;2023-01-28T13:10:32;5.38;;;2.20;;
2053;SDS011;1032;52.542;13.440;2023-01-28T13:13:03;5.70;;;3.03;;
2053;SDS011;1032;52.542;13.440;2023-01-28T13:15:31;5.70;;;2.88;;
2053;SDS011;1032;52.542;13.440;2023-01-28T13:18:03;10.52;;;3.53;;
2053;SDS011;1032;52.542;13.440;2023-01-28T13:20:37;8.43;;;3.80;;
2053;SDS011;1032;52.542;13.440;2023-01-28T13:23:21;6.43;;;4.35;;
2053;SDS011;1032;52.542;13.440;2023-01-28T13:25:49;8.45;;;3.40;;
2053;SDS011;1032;52.542;13.440;2023-01-28T13:28:24;7.07;;;3.35;;
2053;SDS011;1032;52.542;13.440;2023-01-28T13:30:59;5.25;;;2.63;;
2053;SDS011;1032;52.542;13.440;2023-01-28T13:33:31;4.38;;;2.35;;
2053;SDS011;1032;52.542;13.440;2023-01-28T13:36:00;5.45;;;2.95;;
2053;SDS011;1032;52.542;13.440;2023-01-28T13:38:31;6.13;;;3.63;;
2053;SDS011;1032;52.542;13.440;2023-01-28T13:40:59;6.68;;;3.60;;
2053;SDS011;1032;52.542;13.440;2023-01-28T13:43:34;9.68;;;2.63;;
2053;SDS011;1032;52.542;13.440;2023-01-28T13:46:03;11.15;;;5.43;;
2053;SDS011;1032;52.542;13.440;2023-01-28T13:48:33;6.93;;;5.10;;
2053;SDS011;1032;52.542;13.440;2023-01-28T13:51:11;8.47;;;4.17;;
2053;SDS011;1032;52.542;13.440;2023-01-28T13:53:44;11.38;;;5.40;;
2053;SDS011;1032;52.542;13.440;2023-01-28T13:56:17;10.25;;;5.38;;
2053;SDS011;1032;52.542;13.440;2023-01-28T13:58:52;6.30;;;3.50;;
2053;SDS011;1032;52.542;13.440;2023-01-28T14:07:29;2.60;;;1.83;;
2053;SDS011;1032;52.542;13.440;2023-01-28T14:10:17;4.68;;;2.85;;
2053;SDS011;1032;52.542;13.440;2023-01-28T14:13:07;6.00;;;3.10;;
2053;SDS011;1032;52.542;13.440;2023-01-28T14:15:56;4.65;;;1.70;;
2053;SDS011;1032;52.542;13.440;2023-01-28T14:18:29;4.70;;;2.00;;
2053;SDS011;1032;52.542;13.440;2023-01-28T14:21:02;3.92;;;2.63;;
2053;SDS011;1032;52.542;13.440;2023-01-28T14:23:36;3.17;;;2.30;;
2053;SDS011;1032;52.542;13.440;2023-01-28T14:26:14;5.40;;;1.90;;
2053;SDS011;1032;52.542;13.440;2023-01-28T14:28:47;4.70;;;2.20;;
2053;SDS011;1032;52.542;13.440;2023-01-28T14:31:23;5.72;;;2.28;;
2053;SDS011;1032;52.542;13.440;2023-01-28T14:33:53;6.63;;;2.05;;
2053;SDS011;1032;52.542;13.440;2023-01-28T14:36:21;3.85;;;1.63;;
2053;SDS011;1032;52.542;13.440;2023-01-28T14:38:48;8.95;;;3.20;;
2053;SDS011;1032;52.542;13.440;2023-01-28T14:41:19;3.60;;;2.22;;
2053;SDS011;1032;52.542;13.440;2023-01-28T14:43:49;5.85;;;2.30;;
2053;SDS011;1032;52.542;13.440;2023-01-28T14:46:19;5.88;;;2.20;;
2053;SDS011;1032;52.542;13.440;2023-01-28T14:48:57;6.75;;;2.40;;
2053;SDS011;1032;52.542;13.440;2023-01-28T14:52:03;10.90;;;3.80;;
2053;SDS011;1032;52.542;13.440;2023-01-28T14:54:46;3.10;;;1.90;;
2053;SDS011;1032;52.542;13.440;2023-01-28T14:57:36;2.70;;;1.45;;
2053;SDS011;1032;52.542;13.440;2023-01-28T15:00:16;4.57;;;2.25;;
2053;SDS011;1032;52.542;13.440;2023-01-28T15:02:46;2.78;;;1.63;;
2053;SDS011;1032;52.542;13.440;2023-01-28T15:05:14;3.72;;;1.98;;
2053;SDS011;1032;52.542;13.440;2023-01-28T15:07:44;2.63;;;1.73;;
2053;SDS011;1032;52.542;13.440;2023-01-28T15:10:14;2.75;;;1.83;;
2053;SDS011;1032;52.542;13.440;2023-01-28T15:12:43;2.78;;;1.65;;
2053;SDS011;1032;52.542;13.440;2023-01-28T15:15:16;4.10;;;1.70;;
2053;SDS011;1032;52.542;13.440;2023-01-28T15:17:49;3.95;;;1.85;;
2053;SDS011;1032;52.542;13.440;2023-01-28T15:20:17;2.15;;;1.65;;
2053;SDS011;1032;52.542;13.440;2023-01-28T15:22:46;2.55;;;1.52;;
2053;SDS011;1032;52.542;13.440;2023-01-28T15:25:15;3.67;;;2.10;;
2053;SDS011;1032;52.542;13.440;2023-01-28T15:27:43;4.20;;;2.30;;
2053;SDS011;1032;52.542;13.440;2023-01-28T15:30:17;4.07;;;2.47;;
2053;SDS011;1032;52.542;13.440;2023-01-28T15:32:55;5.28;;;2.30;;
2053;SDS011;1032;52.542;13.440;2023-01-28T15:35:22;6.63;;;2.38;;
2053;SDS011;1032;52.542;13.440;2023-01-28T15:37:50;7.28;;;2.50;;